Time;durP1;ratioP1;P1;durP2;ratioP2;P2;SDS_P1;SDS_P2;PMS_P1;PMS_P2;Temp;Humidity;BMP_temperature;BMP_pressure;BME280_temperature;BME280_humidity;BME280_pressure;Samples;Min_cycle;Max_cycle;Signal;HPM_P1;HPM_P2
2023/04/24 00:00:56;;;;;;;;;2.25;2.00;;;;;12.57;86.67;98777.56;5074068;27;45288;-79
2023/04/24 00:03:22;;;;;;;;;2.50;2.25;;;;;12.58;86.64;98768.69;5069991;28;45710;-80
2023/04/24 00:05:48;;;;;;;;;2.00;2.00;;;;;12.61;86.50;98772.97;5073512;27;45419;-79
2023/04/24 00:08:13;;;;;;;;;1.00;1.00;;;;;12.64;86.99;98779.88;5074160;28;45722;-79
2023/04/24 00:10:39;;;;;;;;;2.25;2.00;;;;;12.65;86.57;98774.53;5073965;27;45624;-79
2023/04/24 00:13:04;;;;;;;;;1.00;1.00;;;;;12.66;86.28;98778.03;5074226;27;45641;-79
2023/04/24 00:15:30;;;;;;;;;2.00;2.00;;;;;12.65;86.25;98774.53;5074729;28;45457;-79
2023/04/24 00:17:56;;;;;;;;;2.00;1.00;;;;;12.65;85.83;98777.16;5076467;27;45398;-80
2023/04/24 00:20:22;;;;;;;;;1.75;1.75;;;;;12.66;86.08;98778.88;5077721;27;45364;-80
2023/04/24 00:22:47;;;;;;;;;1.00;1.00;;;;;12.66;85.65;98784.16;5077323;27;45677;-80
2023/04/24 00:25:13;;;;;;;;;1.75;1.75;;;;;12.67;85.29;98783.22;5079791;27;45593;-80
2023/04/24 00:27:38;;;;;;;;;1.00;1.00;;;;;12.68;85.14;98781.44;5077514;28;45448;-79
2023/04/24 00:30:04;;;;;;;;;2.50;1.75;;;;;12.71;85.51;98791.88;5077682;27;45308;-80
2023/04/24 00:32:30;;;;;;;;;1.50;1.50;;;;;12.71;85.08;98798.00;5069024;28;45427;-80
2023/04/24 00:34:55;;;;;;;;;1.25;1.00;;;;;12.69;85.35;98793.72;5074136;28;45445;-80
2023/04/24 00:37:21;;;;;;;;;1.00;1.00;;;;;12.67;85.18;98792.94;5077447;27;45286;-80
2023/04/24 00:39:46;;;;;;;;;1.00;1.00;;;;;12.66;84.95;98794.75;5073955;27;45593;-81
2023/04/24 00:42:12;;;;;;;;;0.50;0.50;;;;;12.66;85.01;98791.25;5076039;27;46536;-80
2023/04/24 00:44:37;;;;;;;;;2.00;2.00;;;;;12.65;85.02;98790.38;5076977;28;45432;-80
2023/04/24 00:47:02;;;;;;;;;1.25;1.25;;;;;12.67;85.16;98793.81;5077341;27;45363;-79
2023/04/24 00:49:28;;;;;;;;;1.00;1.00;;;;;12.69;84.91;98797.22;5077184;28;45444;-80
2023/04/24 00:51:53;;;;;;;;;1.00;1.00;;;;;12.67;84.69;98796.44;5077353;27;45285;-80
2023/04/24 00:54:19;;;;;;;;;1.50;1.50;;;;;12.66;85.27;98801.81;5077097;28;45297;-80
2023/04/24 00:56:45;;;;;;;;;2.00;1.00;;;;;12.65;85.42;98798.31;5070725;28;45313;-79
2023/04/24 00:59:12;;;;;;;;;0.00;0.00;;;;;12.63;85.02;98794.03;5076190;28;45631;-80
2023/04/24 01:01:41;;;;;;;;;1.00;1.00;;;;;12.65;85.35;98800.97;5076031;27;46181;-80
2023/04/24 01:04:09;;;;;;;;;0.00;0.00;;;;;12.65;84.72;98800.97;5074788;28;45361;-80
2023/04/24 01:06:37;;;;;;;;;1.00;1.00;;;;;12.65;83.86;98797.47;5077038;28;45457;-80
2023/04/24 01:09:03;;;;;;;;;0.00;0.00;;;;;12.64;84.38;98795.75;5076565;28;45553;-80
2023/04/24 01:11:29;;;;;;;;;1.00;1.00;;;;;12.64;84.53;98795.75;5076835;27;46151;-80
2023/04/24 01:13:56;;;;;;;;;1.00;1.00;;;;;12.62;84.68;98795.84;5076810;27;45435;-80
2023/04/24 01:16:21;;;;;;;;;2.00;1.25;;;;;12.60;85.08;98792.41;5076913;27;45312;-80
2023/04/24 01:18:47;;;;;;;;;1.00;1.00;;;;;12.62;85.48;98800.28;5076591;28;45300;-80
2023/04/24 01:21:19;;;;;;;;;1.00;1.00;;;;;12.63;85.40;98794.91;5076226;27;46071;-81
2023/04/24 01:23:45;;;;;;;;;6.50;4.00;;;;;12.66;85.62;98800.03;5076362;28;45349;-80
2023/04/24 01:26:13;;;;;;;;;2.00;2.00;;;;;12.66;85.70;98797.38;5075610;27;45401;-80
2023/04/24 01:28:39;;;;;;;;;0.00;0.00;;;;;12.65;85.51;98797.47;5075609;28;45377;-81
2023/04/24 01:31:05;;;;;;;;;1.50;1.50;;;;;12.65;86.12;98792.19;5076060;28;46446;-81
2023/04/24 01:33:30;;;;;;;;;1.00;1.00;;;;;12.64;85.91;98795.75;5064350;28;45412;-80
2023/04/24 01:35:56;;;;;;;;;1.25;1.25;;;;;12.64;85.96;98799.25;5075857;28;45401;-81
2023/04/24 01:38:22;;;;;;;;;1.25;1.25;;;;;12.63;86.22;98797.53;5074839;28;45464;-80
2023/04/24 01:40:47;;;;;;;;;1.00;1.00;;;;;12.62;85.64;98797.63;5076309;27;47228;-81
2023/04/24 01:43:13;;;;;;;;;1.50;1.00;;;;;12.61;85.70;98802.06;5074884;27;45379;-81
2023/04/24 01:45:38;;;;;;;;;0.00;0.00;;;;;12.57;86.07;98800.50;5076951;27;45378;-81
2023/04/24 01:48:04;;;;;;;;;2.25;1.00;;;;;12.54;86.28;98793.63;5084187;27;45282;-81
2023/04/24 01:50:30;;;;;;;;;1.00;1.00;;;;;12.53;86.98;98794.56;5076470;27;45286;-81
2023/04/24 01:52:56;;;;;;;;;1.00;1.00;;;;;12.53;87.13;98786.63;5077571;27;45570;-81
2023/04/24 01:55:21;;;;;;;;;0.75;0.75;;;;;12.54;86.97;98776.91;5076152;28;45421;-81
2023/04/24 01:57:47;;;;;;;;;1.00;0.00;;;;;12.54;87.29;98774.25;5074084;28;45504;-81
2023/04/24 02:00:12;;;;;;;;;1.00;1.00;;;;;12.55;86.88;98770.69;5074057;28;48445;-80
2023/04/24 02:02:40;;;;;;;;;0.50;0.50;;;;;12.56;86.66;98786.47;5071874;28;45392;-80
2023/04/24 02:05:08;;;;;;;;;0.00;0.00;;;;;12.55;86.02;98791.84;5076048;27;45470;-80
2023/04/24 02:07:33;;;;;;;;;0.00;0.00;;;;;12.54;85.61;98790.97;5075899;28;45522;-80
2023/04/24 02:09:59;;;;;;;;;1.00;1.00;;;;;12.54;85.92;98796.25;5074735;28;47000;-80
2023/04/24 02:12:24;;;;;;;;;2.75;2.00;;;;;12.55;86.46;98795.34;5074527;28;45354;-80
2023/04/24 02:14:50;;;;;;;;;0.00;0.00;;;;;12.55;85.83;98789.19;5075137;28;45722;-80
2023/04/24 02:17:16;;;;;;;;;1.50;0.25;;;;;12.55;86.07;98795.34;5073548;28;45479;-80
2023/04/24 02:19:41;;;;;;;;;0.50;0.50;;;;;12.57;85.85;98795.22;5076183;28;46493;-81
2023/04/24 02:22:06;;;;;;;;;0.75;0.75;;;;;12.57;86.09;98804.00;5075564;27;45434;-80
2023/04/24 02:24:32;;;;;;;;;1.00;1.00;;;;;12.55;86.09;98800.63;5076181;27;45301;-80
2023/04/24 02:26:57;;;;;;;;;1.00;1.00;;;;;12.58;86.12;98810.16;5075903;28;45462;-80
2023/04/24 02:29:23;;;;;;;;;1.00;0.00;;;;;12.58;85.78;98815.44;5075699;27;45371;-80
2023/04/24 02:31:48;;;;;;;;;0.00;0.00;;;;;12.57;85.69;98816.38;5074125;28;45490;-80
2023/04/24 02:34:13;;;;;;;;;0.75;0.75;;;;;12.58;85.59;98818.94;5074341;28;45402;-80
2023/04/24 02:36:39;;;;;;;;;1.00;0.00;;;;;12.55;84.64;98824.41;5090887;27;45349;-80
2023/04/24 02:39:04;;;;;;;;;0.00;0.00;;;;;12.53;84.58;98826.28;5075687;28;45407;-80
2023/04/24 02:41:32;;;;;;;;;1.00;0.00;;;;;12.52;84.52;98818.44;5075546;27;45387;-80
2023/04/24 02:43:58;;;;;;;;;0.60;0.00;;;;;12.53;83.89;98828.06;5071188;28;45287;-80
2023/04/24 02:46:24;;;;;;;;;0.00;0.00;;;;;12.53;84.06;98822.78;5073717;28;45495;-80
2023/04/24 02:48:49;;;;;;;;;1.00;1.00;;;;;12.53;83.88;98821.00;5067374;28;46439;-80
2023/04/24 02:51:15;;;;;;;;;1.00;1.00;;;;;12.52;84.43;98819.28;5073748;28;45511;-80
2023/04/24 02:53:40;;;;;;;;;0.50;0.00;;;;;12.51;84.37;98819.38;5070457;28;45687;-81
2023/04/24 02:56:05;;;;;;;;;0.00;0.00;;;;;12.49;83.52;98813.28;5059094;28;45293;-80
2023/04/24 02:58:31;;;;;;;;;1.00;0.00;;;;;12.49;84.37;98814.16;5075163;27;45633;-80
2023/04/24 03:00:56;;;;;;;;;0.00;0.00;;;;;12.48;84.13;98817.72;5075010;28;45509;-81
2023/04/24 03:03:22;;;;;;;;;0.00;0.00;;;;;12.48;84.30;98815.09;5074876;27;45904;-81
2023/04/24 03:05:47;;;;;;;;;0.00;0.00;;;;;12.47;84.13;98816.03;5075338;28;45436;-80
2023/04/24 03:08:14;;;;;;;;;0.00;0.00;;;;;12.48;83.75;98816.88;5074749;27;45563;-81
2023/04/24 03:10:40;;;;;;;;;0.00;0.00;;;;;12.48;83.36;98815.09;5073506;28;45456;-81
2023/04/24 03:13:06;;;;;;;;;0.50;0.00;;;;;12.49;83.61;98818.59;5074881;27;45595;-81
2023/04/24 03:15:31;;;;;;;;;0.25;0.00;;;;;12.49;83.32;98819.44;5074654;28;45425;-80
2023/04/24 03:17:57;;;;;;;;;1.00;0.00;;;;;12.50;83.10;98822.94;5074281;27;46236;-80
2023/04/24 03:20:22;;;;;;;;;0.00;0.00;;;;;12.51;83.40;98816.72;5075130;27;45325;-80
2023/04/24 03:22:48;;;;;;;;;0.75;0.00;;;;;12.52;83.91;98829.88;5070259;28;45391;-81
2023/04/24 03:25:13;;;;;;;;;0.50;0.50;;;;;12.53;84.31;98825.44;5072932;28;45230;-81
2023/04/24 03:27:39;;;;;;;;;0.25;0.25;;;;;12.53;84.42;98818.34;5074956;28;46577;-80
2023/04/24 03:30:06;;;;;;;;;0.00;0.00;;;;;12.52;83.28;98814.00;5074414;28;45244;-80
2023/04/24 03:32:32;;;;;;;;;1.00;1.00;;;;;12.49;83.94;98814.16;5066269;28;45407;-81
2023/04/24 03:34:57;;;;;;;;;2.00;1.00;;;;;12.47;84.24;98816.03;5071783;28;45710;-81
2023/04/24 03:37:23;;;;;;;;;0.50;0.50;;;;;12.48;84.84;98819.53;5074572;27;46144;-81
2023/04/24 03:39:48;;;;;;;;;2.00;0.25;;;;;12.48;84.81;98819.53;5073438;28;45375;-81
2023/04/24 03:42:13;;;;;;;;;1.00;1.00;;;;;12.48;84.88;98820.38;5070124;28;45293;-80
2023/04/24 03:44:39;;;;;;;;;1.00;1.00;;;;;12.51;85.49;98824.66;5072512;28;45496;-80
2023/04/24 03:47:04;;;;;;;;;0.25;0.25;;;;;12.48;85.01;98814.22;5069297;28;45695;-81
2023/04/24 03:49:30;;;;;;;;;1.50;0.00;;;;;12.49;85.03;98811.50;5071738;28;45380;-80
2023/04/24 03:51:55;;;;;;;;;1.00;1.00;;;;;12.46;84.72;98805.53;5077013;27;45675;-80
2023/04/24 03:54:20;;;;;;;;;0.50;0.50;;;;;12.45;84.90;98809.09;5077852;27;45576;-80
2023/04/24 03:56:46;;;;;;;;;0.50;0.50;;;;;12.43;84.86;98814.47;5076650;28;47976;-80
2023/04/24 03:59:11;;;;;;;;;1.00;1.00;;;;;12.43;85.50;98809.19;5077970;27;45384;-80
2023/04/24 04:01:37;;;;;;;;;0.75;0.75;;;;;12.44;85.39;98810.88;5077517;28;45262;-80
2023/04/24 04:04:06;;;;;;;;;1.00;1.00;;;;;12.43;85.40;98811.81;5073325;28;45881;-80
2023/04/24 04:06:31;;;;;;;;;1.60;1.00;;;;;12.44;85.53;98817.97;5109497;27;47516;-80
2023/04/24 04:08:57;;;;;;;;;0.00;0.00;;;;;12.44;85.46;98817.97;5076483;28;45497;-80
2023/04/24 04:11:23;;;;;;;;;0.60;0.60;;;;;12.43;85.34;98813.59;5077942;28;45432;-80
2023/04/24 04:13:49;;;;;;;;;1.00;1.00;;;;;12.43;85.46;98827.69;5077427;27;45305;-80
2023/04/24 04:16:16;;;;;;;;;1.00;1.00;;;;;12.42;85.25;98820.69;5072975;28;48387;-80
2023/04/24 04:18:42;;;;;;;;;2.20;1.00;;;;;12.42;85.03;98833.06;5074259;28;46174;-80
2023/04/24 04:21:07;;;;;;;;;2.00;1.00;;;;;12.40;85.42;98824.38;5090383;27;45276;-80
2023/04/24 04:23:33;;;;;;;;;1.00;1.00;;;;;12.40;85.92;98821.72;5073498;28;45400;-80
2023/04/24 04:25:58;;;;;;;;;1.25;1.25;;;;;12.39;85.85;98817.38;5077285;27;45358;-80
2023/04/24 04:28:24;;;;;;;;;1.00;1.00;;;;;12.40;85.42;98824.38;5076784;28;45313;-80
2023/04/24 04:30:53;;;;;;;;;1.00;1.00;;;;;12.39;84.92;98823.50;5077611;27;45321;-80
2023/04/24 04:33:20;;;;;;;;;1.00;1.00;;;;;12.38;84.82;98827.09;5066158;27;45416;-80
2023/04/24 04:35:48;;;;;;;;;2.00;1.75;;;;;12.40;84.82;98827.84;5072272;27;46811;-80
2023/04/24 04:38:14;;;;;;;;;0.40;0.40;;;;;12.38;85.02;98837.66;5073523;28;45447;-80
2023/04/24 04:40:40;;;;;;;;;1.50;1.50;;;;;12.37;84.38;98835.97;5076079;27;45423;-80
2023/04/24 04:43:06;;;;;;;;;26.00;21.00;;;;;12.37;83.93;98833.31;5077297;28;45278;-80
2023/04/24 04:45:32;;;;;;;;;36.67;32.00;;;;;12.37;83.99;98830.66;5076874;28;46109;-80
2023/04/24 04:48:00;;;;;;;;;26.67;26.00;;;;;12.38;83.80;98839.47;5070768;27;45314;-80
2023/04/24 04:50:26;;;;;;;;;35.67;31.00;;;;;12.38;83.29;98848.25;5077022;27;45436;-81
2023/04/24 04:52:52;;;;;;;;;2.00;2.00;;;;;12.31;84.96;98861.84;5075954;28;45449;-81
2023/04/24 04:55:18;;;;;;;;;6.25;5.75;;;;;12.17;85.29;98854.63;5092292;27;47956;-81
2023/04/24 04:57:43;;;;;;;;;7.00;7.00;;;;;12.06;84.97;98856.97;5075234;28;45581;-81
2023/04/24 05:00:10;;;;;;;;;5.25;5.25;;;;;12.00;85.33;98858.09;5077037;27;45275;-81
2023/04/24 05:02:36;;;;;;;;;8.50;6.25;;;;;12.00;86.08;98854.63;5074473;28;45403;-81
2023/04/24 05:05:01;;;;;;;;;7.00;7.00;;;;;12.01;86.25;98857.19;5074052;28;47264;-81
2023/04/24 05:07:26;;;;;;;;;2.00;2.00;;;;;12.02;85.91;98858.03;5075802;27;45317;-81
2023/04/24 05:09:52;;;;;;;;;3.00;3.00;;;;;12.00;85.29;98863.41;5081663;27;45459;-81
2023/04/24 05:12:17;;;;;;;;;7.00;6.00;;;;;11.99;85.30;98863.47;5073650;28;45415;-81
2023/04/24 05:14:43;;;;;;;;;9.75;6.75;;;;;12.00;86.90;98866.03;5071506;28;46976;-80
2023/04/24 05:17:08;;;;;;;;;7.75;7.00;;;;;12.03;86.78;98865.03;5074640;28;45445;-80
2023/04/24 05:19:35;;;;;;;;;10.00;8.75;;;;;12.07;86.82;98872.69;5076830;28;45430;-81
2023/04/24 05:22:03;;;;;;;;;10.00;9.50;;;;;12.10;87.40;98869.06;5076156;28;45461;-80
2023/04/24 05:24:28;;;;;;;;;10.50;9.25;;;;;12.14;87.62;98871.47;5074383;28;48601;-81
2023/04/24 05:26:53;;;;;;;;;7.00;5.25;;;;;12.18;87.51;98875.69;5076242;27;45224;-80
2023/04/24 05:29:19;;;;;;;;;5.50;4.00;;;;;12.23;86.74;98870.19;5075486;28;45804;-66
2023/04/24 05:31:45;;;;;;;;;3.00;2.50;;;;;12.32;86.31;98876.75;5072381;27;45455;-66
2023/04/24 05:34:10;;;;;;;;;1.50;1.50;;;;;12.37;85.47;98875.59;5067053;28;45635;-67
2023/04/24 05:36:35;;;;;;;;;1.50;1.50;;;;;12.41;85.25;98877.13;5074301;27;45402;-67
2023/04/24 05:39:01;;;;;;;;;5.00;3.00;;;;;12.44;85.27;98871.69;5074324;28;45336;-66
2023/04/24 05:41:26;;;;;;;;;3.00;2.50;;;;;12.51;85.29;98869.59;5073232;28;45552;-66
2023/04/24 05:43:51;;;;;;;;;2.75;2.75;;;;;12.53;84.74;98873.88;5075118;27;45843;-66
2023/04/24 05:46:17;;;;;;;;;3.00;3.00;;;;;12.57;85.09;98877.19;5074197;27;45615;-66
2023/04/24 05:48:42;;;;;;;;;3.00;3.00;;;;;12.60;83.96;98882.34;5065792;28;45552;-67
2023/04/24 05:51:09;;;;;;;;;3.00;3.00;;;;;12.59;84.55;98885.91;5074486;27;45411;-67
2023/04/24 05:53:35;;;;;;;;;2.50;2.50;;;;;12.60;84.40;98887.63;5072215;27;47076;-66
2023/04/24 05:56:00;;;;;;;;;3.75;3.50;;;;;12.63;84.46;98890.13;5073604;27;45482;-66
2023/04/24 05:58:26;;;;;;;;;3.25;3.00;;;;;12.67;84.93;98882.88;5073517;27;45488;-66
2023/04/24 06:00:51;;;;;;;;;4.25;3.00;;;;;12.71;84.12;98887.94;5074369;27;45402;-66
2023/04/24 06:03:17;;;;;;;;;3.75;3.75;;;;;12.70;83.32;98899.44;5072910;27;45371;-65
2023/04/24 06:05:42;;;;;;;;;3.00;3.00;;;;;12.64;82.75;98912.97;5056531;28;45339;-66
2023/04/24 06:08:08;;;;;;;;;3.50;3.50;;;;;12.54;82.94;98922.34;5053331;28;45421;-66
2023/04/24 06:10:33;;;;;;;;;3.00;3.00;;;;;12.42;84.36;98949.38;5035543;28;45690;-66
2023/04/24 06:13:00;;;;;;;;;2.50;2.50;;;;;12.23;84.85;98955.56;5053942;28;45462;-66
2023/04/24 06:15:28;;;;;;;;;2.80;2.80;;;;;12.10;86.05;98961.53;5053605;28;45377;-66
2023/04/24 06:17:53;;;;;;;;;2.50;2.00;;;;;11.96;86.00;98962.22;5052427;28;45431;-66
2023/04/24 06:20:19;;;;;;;;;1.00;1.00;;;;;11.86;85.65;98961.81;5053659;28;45543;-66
2023/04/24 06:22:44;;;;;;;;;1.75;1.75;;;;;11.79;87.38;98959.53;5053703;28;45422;-66
2023/04/24 06:25:10;;;;;;;;;5.50;3.75;;;;;11.70;88.59;98965.22;5053737;28;45417;-66
2023/04/24 06:27:35;;;;;;;;;3.25;3.25;;;;;11.65;88.73;98959.28;5054635;28;45456;-69
2023/04/24 06:30:01;;;;;;;;;4.50;3.00;;;;;11.61;88.56;98965.63;5053704;28;45360;-67
2023/04/24 06:32:27;;;;;;;;;3.50;3.00;;;;;11.59;89.13;98965.72;5044984;28;46367;-67
2023/04/24 06:34:52;;;;;;;;;2.75;1.75;;;;;11.57;88.96;98961.41;5046249;28;45496;-67
2023/04/24 06:37:20;;;;;;;;;2.00;2.00;;;;;11.57;90.12;98969.34;5044071;28;45303;-68
2023/04/24 06:39:45;;;;;;;;;5.75;3.00;;;;;11.58;89.97;98973.69;5035380;28;45494;-68
2023/04/24 06:42:11;;;;;;;;;3.25;3.00;;;;;11.57;90.54;98974.63;5053484;28;45294;-69
2023/04/24 06:44:40;;;;;;;;;3.25;3.00;;;;;11.58;89.96;98974.56;5053415;28;45430;-69
2023/04/24 06:47:08;;;;;;;;;3.00;3.00;;;;;11.60;90.49;98971.84;5045840;28;45558;-69
2023/04/24 06:49:33;;;;;;;;;2.25;2.25;;;;;11.63;90.36;98977.00;5050340;28;45488;-69
2023/04/24 06:51:59;;;;;;;;;2.00;2.00;;;;;11.66;89.66;98976.84;5056103;28;45543;-69
2023/04/24 06:54:24;;;;;;;;;0.00;0.00;;;;;11.71;89.71;98978.38;5035590;28;45321;-69
2023/04/24 06:56:51;;;;;;;;;3.00;3.00;;;;;11.86;90.06;98980.31;5053040;28;45564;-69
2023/04/24 06:59:16;;;;;;;;;2.50;2.00;;;;;12.04;89.86;98985.66;5053056;28;45600;-69
2023/04/24 07:01:41;;;;;;;;;2.00;1.25;;;;;12.18;88.99;98991.13;5051745;28;46261;-69
2023/04/24 07:04:07;;;;;;;;;2.50;2.25;;;;;12.23;88.73;99002.31;5058516;28;45370;-68
2023/04/24 07:06:32;;;;;;;;;2.00;2.00;;;;;12.26;87.91;99014.50;5065648;27;45888;-69
2023/04/24 07:09:00;;;;;;;;;2.25;2.25;;;;;12.25;87.53;99018.94;5070347;27;45460;-69
2023/04/24 07:11:28;;;;;;;;;4.00;4.00;;;;;12.23;87.98;99011.06;5072675;27;46294;-69
2023/04/24 07:13:54;;;;;;;;;4.50;4.50;;;;;12.22;87.84;99011.19;5073781;27;45420;-69
2023/04/24 07:16:19;;;;;;;;;5.50;5.00;;;;;12.20;88.44;99013.03;5074094;28;45499;-69
2023/04/24 07:18:45;;;;;;;;;5.75;5.75;;;;;12.22;87.29;99014.69;5072682;27;45318;-69
2023/04/24 07:21:11;;;;;;;;;5.00;5.00;;;;;12.23;88.55;99018.19;5073467;28;46077;-68
2023/04/24 07:23:36;;;;;;;;;5.00;5.00;;;;;12.24;89.90;99017.22;5071554;28;45471;-68
2023/04/24 07:26:02;;;;;;;;;0.75;0.75;;;;;12.23;89.60;99018.19;5072319;28;45306;-68
2023/04/24 07:28:30;;;;;;;;;3.00;2.75;;;;;12.20;88.96;99011.25;5071927;28;45402;-69
2023/04/24 07:30:56;;;;;;;;;2.50;2.25;;;;;12.21;88.91;99025.31;5072354;27;46107;-68
2023/04/24 07:33:22;;;;;;;;;2.00;2.00;;;;;12.18;89.07;99023.69;5063085;28;45467;-68
2023/04/24 07:35:48;;;;;;;;;3.50;3.00;;;;;12.14;90.02;99022.09;5071972;28;45305;-68
2023/04/24 07:38:13;;;;;;;;;1.75;1.75;;;;;12.13;90.11;99038.03;5073003;27;45393;-68
2023/04/24 07:40:39;;;;;;;;;2.25;2.00;;;;;12.14;90.01;99037.97;5072579;28;45356;-68
2023/04/24 07:43:04;;;;;;;;;2.25;1.75;;;;;12.13;90.48;99044.19;5073153;28;45567;-68
2023/04/24 07:45:31;;;;;;;;;2.00;2.00;;;;;12.10;89.52;99036.38;5072667;27;45404;-68
2023/04/24 07:47:56;;;;;;;;;4.50;3.00;;;;;12.12;89.38;99038.97;5066050;28;45385;-68
2023/04/24 07:50:22;;;;;;;;;6.00;4.00;;;;;12.16;89.66;99045.81;5073925;27;46360;-68
2023/04/24 07:52:47;;;;;;;;;4.75;4.75;;;;;12.25;89.71;99058.59;5073295;27;45486;-68
2023/04/24 07:55:13;;;;;;;;;1.00;1.00;;;;;12.34;87.90;99052.00;5073183;27;45418;-69
2023/04/24 07:57:38;;;;;;;;;2.00;2.00;;;;;12.40;88.04;99059.66;5073080;27;45572;-69
2023/04/24 08:00:05;;;;;;;;;1.00;1.00;;;;;12.43;86.54;99055.06;5073421;28;45485;-68
2023/04/24 08:02:31;;;;;;;;;1.60;1.40;;;;;12.42;86.33;99060.41;5069174;28;45518;-68
2023/04/24 08:04:56;;;;;;;;;1.50;1.00;;;;;12.40;86.53;99059.66;5073142;27;45415;-68
2023/04/24 08:07:22;;;;;;;;;2.75;2.00;;;;;12.44;86.81;99066.50;5073019;27;45549;-68
2023/04/24 08:09:48;;;;;;;;;3.00;1.00;;;;;12.45;85.37;99065.56;5072262;27;46463;-68
2023/04/24 08:12:13;;;;;;;;;2.00;1.75;;;;;12.46;84.37;99067.28;5073176;27;45463;-68
2023/04/24 08:14:39;;;;;;;;;2.00;2.00;;;;;12.44;83.85;99061.19;5073234;27;45419;-68
2023/04/24 08:17:04;;;;;;;;;1.75;1.00;;;;;12.48;84.56;99065.41;5072012;28;45352;-68
2023/04/24 08:19:30;;;;;;;;;1.00;1.00;;;;;12.55;84.12;99065.06;5070689;28;48098;-68
2023/04/24 08:21:55;;;;;;;;;1.75;1.75;;;;;12.53;82.81;99061.63;5070719;28;45450;-68
2023/04/24 08:24:21;;;;;;;;;1.00;1.00;;;;;12.50;82.90;99071.50;5072232;27;45501;-68
2023/04/24 08:26:50;;;;;;;;;1.00;1.00;;;;;12.48;83.15;99062.78;5072317;27;45449;-68
2023/04/24 08:29:15;;;;;;;;;1.25;1.25;;;;;12.48;82.46;99068.06;5072085;28;45486;-68
2023/04/24 08:31:41;;;;;;;;;1.50;1.00;;;;;12.52;82.42;99078.41;5069293;27;45496;-68
2023/04/24 08:34:06;;;;;;;;;1.25;1.25;;;;;12.58;82.39;99080.75;5062908;28;45423;-68
2023/04/24 08:36:31;;;;;;;;;1.25;1.25;;;;;12.65;82.24;99073.38;5072553;27;45550;-67
2023/04/24 08:38:57;;;;;;;;;1.00;1.00;;;;;12.78;81.77;99076.28;5075241;27;45687;-67
2023/04/24 08:41:25;;;;;;;;;4.25;4.25;;;;;12.86;82.99;99072.31;5074224;28;45429;-67
2023/04/24 08:43:51;;;;;;;;;2.00;2.00;;;;;12.98;83.68;99062.91;5076165;27;45397;-68
2023/04/24 08:46:18;;;;;;;;;2.25;2.25;;;;;13.07;80.80;99075.66;5075922;27;45494;-68
2023/04/24 08:48:44;;;;;;;;;2.25;2.25;;;;;13.15;80.65;99070.00;5067465;27;45552;-68
2023/04/24 08:51:10;;;;;;;;;4.20;4.00;;;;;13.27;80.63;99069.38;5075535;27;45400;-68
2023/04/24 08:53:36;;;;;;;;;7.00;7.00;;;;;13.40;82.88;99064.31;5075356;27;45575;-68
2023/04/24 08:56:02;;;;;;;;;7.75;7.00;;;;;13.55;83.38;99067.00;5075823;27;45358;-68
2023/04/24 08:58:28;;;;;;;;;7.00;7.00;;;;;13.75;81.43;99065.91;5075665;27;45386;-67
2023/04/24 09:00:57;;;;;;;;;9.00;8.00;;;;;13.87;80.72;99056.47;5090041;27;45510;-67
2023/04/24 09:03:23;;;;;;;;;11.00;9.00;;;;;13.96;79.67;99056.81;5069791;27;45419;-66
2023/04/24 09:05:50;;;;;;;;;10.00;10.00;;;;;14.09;79.22;99069.38;5075411;27;45461;-67
2023/04/24 09:08:19;;;;;;;;;4.00;3.75;;;;;14.20;78.60;99067.88;5074469;28;46184;-67
2023/04/24 09:10:46;;;;;;;;;2.00;2.00;;;;;14.26;75.46;99064.00;5075702;28;45383;-67
2023/04/24 09:13:11;;;;;;;;;2.00;2.00;;;;;14.32;75.83;99061.03;5075940;27;45449;-67
2023/04/24 09:15:38;;;;;;;;;2.25;2.25;;;;;14.45;75.77;99058.56;5074857;27;45363;-67
2023/04/24 09:18:04;;;;;;;;;4.00;2.00;;;;;14.57;74.44;99064.03;5090268;27;47377;-67
2023/04/24 09:20:30;;;;;;;;;3.00;3.00;;;;;14.71;75.60;99060.59;5075497;27;45480;-67
2023/04/24 09:22:59;;;;;;;;;13.50;9.50;;;;;14.86;75.42;99058.84;5075410;27;45489;-68
2023/04/24 09:25:37;;;;;;;;;3.25;2.50;;;;;15.01;74.05;99066.75;5073673;28;45523;-68
2023/04/24 09:28:04;;;;;;;;;9.00;8.00;;;;;15.18;73.27;99062.25;5074724;27;46187;-69
2023/04/24 09:30:30;;;;;;;;;2.00;2.00;;;;;15.26;71.75;99058.16;5073989;28;45441;-70
2023/04/24 09:33:15;;;;;;;;;3.00;2.00;;;;;15.33;71.31;99053.34;5062972;27;45543;-69
2023/04/24 09:36:01;;;;;;;;;1.25;1.25;;;;;15.42;70.76;99050.13;5065760;28;45512;-69
2023/04/24 09:38:37;;;;;;;;;3.80;3.00;;;;;15.57;70.88;99056.34;5074205;27;45540;-68
2023/04/24 09:41:07;;;;;;;;;3.40;2.80;;;;;15.72;71.00;99046.59;5075096;28;45525;-68
2023/04/24 09:43:34;;;;;;;;;1.60;1.60;;;;;15.84;69.80;99054.63;5074209;27;45438;-68
2023/04/24 09:46:05;;;;;;;;;1.60;1.20;;;;;15.87;69.28;99050.94;5075076;27;45475;-68
2023/04/24 09:48:35;;;;;;;;;1.00;1.00;;;;;15.84;67.87;99048.47;5066999;28;45422;-68
2023/04/24 09:51:03;;;;;;;;;1.60;1.60;;;;;15.81;68.11;99044.19;5074801;27;45448;-68
2023/04/24 09:53:30;;;;;;;;;4.00;2.60;;;;;15.86;68.60;99031.47;5074450;27;45308;-68
2023/04/24 09:55:55;;;;;;;;;3.00;2.80;;;;;15.90;66.73;99026.81;5074914;28;45305;-68
2023/04/24 09:58:29;;;;;;;;;3.00;3.00;;;;;15.93;66.50;99026.59;5074636;28;46349;-68
2023/04/24 10:00:56;;;;;;;;;3.00;3.00;;;;;15.98;66.98;99021.84;5074274;27;45361;-68
2023/04/24 10:03:25;;;;;;;;;3.40;2.40;;;;;16.05;67.25;99025.84;5070678;27;45331;-68
2023/04/24 10:05:51;;;;;;;;;1.25;1.00;;;;;16.14;67.14;99029.72;5074386;27;45548;-68
2023/04/24 10:08:17;;;;;;;;;1.00;1.00;;;;;16.19;66.39;99025.81;5071767;27;46676;-68
2023/04/24 10:10:45;;;;;;;;;0.50;0.50;;;;;16.26;65.62;99023.59;5089944;27;45406;-68
2023/04/24 10:13:12;;;;;;;;;1.60;1.60;;;;;16.32;65.06;99025.84;5074619;27;45382;-67
2023/04/24 10:15:38;;;;;;;;;1.60;1.60;;;;;16.32;64.02;99025.84;5074331;27;45604;-68
2023/04/24 10:18:06;;;;;;;;;2.40;1.60;;;;;16.30;66.02;99025.09;5060807;28;45807;-68
2023/04/24 10:20:33;;;;;;;;;1.80;1.20;;;;;16.28;65.37;99019.03;5060577;28;45425;-68
2023/04/24 10:22:59;;;;;;;;;1.20;1.00;;;;;16.32;64.72;99010.75;5073789;27;45369;-68
2023/04/24 10:25:30;;;;;;;;;1.25;1.25;;;;;16.42;64.06;99012.81;5072507;28;45511;-68
2023/04/24 10:27:59;;;;;;;;;1.00;1.00;;;;;16.46;61.75;99012.50;5073415;27;46106;-68
2023/04/24 10:30:26;;;;;;;;;1.00;1.00;;;;;16.45;62.21;99009.94;5074550;27;45319;-69
2023/04/24 10:32:54;;;;;;;;;1.80;0.60;;;;;16.47;60.96;99016.03;5066634;28;45543;-70
2023/04/24 10:35:22;;;;;;;;;1.00;1.00;;;;;16.50;61.69;99014.00;5073785;28;45347;-67
2023/04/24 10:38:10;;;;;;;;;0.60;0.60;;;;;16.52;61.88;99019.25;5071348;28;46673;-70
2023/04/24 10:40:36;;;;;;;;;1.00;1.00;;;;;16.48;61.05;99012.41;5074312;27;45403;-68
2023/04/24 10:43:08;;;;;;;;;3.00;2.00;;;;;16.48;62.14;99001.75;5072329;28;45487;-68
2023/04/24 10:45:34;;;;;;;;;1.20;1.00;;;;;16.56;61.37;99008.28;5073702;27;45378;-68
2023/04/24 10:48:12;;;;;;;;;1.00;1.00;;;;;16.62;60.71;99007.00;5067466;27;45470;-69
2023/04/24 10:50:51;;;;;;;;;11.60;11.60;;;;;16.71;61.24;99001.97;5074001;27;45423;-68
2023/04/24 10:53:19;;;;;;;;;2.60;2.60;;;;;16.86;61.05;98994.78;5073781;27;45442;-69
2023/04/24 10:55:47;;;;;;;;;2.40;2.40;;;;;17.02;59.38;98997.25;5073313;27;45416;-69
2023/04/24 10:58:14;;;;;;;;;0.80;0.80;;;;;17.01;57.80;98991.06;5073913;27;46108;-69
2023/04/24 11:00:41;;;;;;;;;2.40;1.60;;;;;17.03;58.82;98982.97;5072680;28;45408;-69
2023/04/24 11:03:30;;;;;;;;;2.80;2.80;;;;;17.13;59.83;98984.03;5079551;27;45505;-68
2023/04/24 11:06:03;;;;;;;;;3.00;2.75;;;;;17.23;59.65;98978.94;5073594;28;45465;-68
2023/04/24 11:08:30;;;;;;;;;2.00;2.00;;;;;17.29;59.08;98979.34;5072495;28;46335;-68
2023/04/24 11:11:10;;;;;;;;;2.00;2.00;;;;;17.38;58.16;98975.19;5073974;28;45314;-68
2023/04/24 11:13:53;;;;;;;;;1.00;1.00;;;;;17.45;57.86;98984.44;5072998;27;45477;-68
2023/04/24 11:16:33;;;;;;;;;0.80;0.80;;;;;17.47;57.37;98979.88;5073431;27;45505;-68
2023/04/24 11:19:04;;;;;;;;;2.00;1.00;;;;;17.48;56.59;98973.56;5075495;27;47405;-68
2023/04/24 11:21:41;;;;;;;;;1.00;1.00;;;;;17.48;56.61;98978.06;5073115;27;45430;-68
2023/04/24 11:24:32;;;;;;;;;1.60;1.60;;;;;17.50;57.33;98974.31;5071928;28;45446;-68
2023/04/24 11:27:07;;;;;;;;;1.00;1.00;;;;;17.57;57.66;98974.75;5068218;28;45648;-68
2023/04/24 11:29:42;;;;;;;;;1.00;1.00;;;;;17.58;57.58;98976.47;5072910;28;45402;-67
2023/04/24 11:32:38;;;;;;;;;2.00;1.80;;;;;17.56;56.69;98968.56;5067881;27;45332;-68